Time;durP1;ratioP1;P1;durP2;ratioP2;P2;SDS_P1;SDS_P2;PMS_P1;PMS_P2;Temp;Humidity;BMP_temperature;BMP_pressure;BME280_temperature;BME280_humidity;BME280_pressure;Samples;Min_cycle;Max_cycle;Signal;HPM_P1;HPM_P2
2023/01/30 00:00:52;;;;;;;;;;;8.10;99.90;;;;;;5073395;28;20359;-72
2023/01/30 00:03:17;;;;;;;;;;;8.30;99.90;;;;;;5054258;28;19924;-72
2023/01/30 00:05:43;;;;;;;;;;;7.00;99.90;;;;;;5073554;28;19927;-72
2023/01/30 00:08:08;;;;;;;;;;;6.80;99.90;;;;;;5072641;28;20016;-72
2023/01/30 00:10:34;;;;;;;;;;;6.70;99.90;;;;;;5055732;28;20014;-71
2023/01/30 00:12:59;;;;;;;;;;;7.90;99.90;;;;;;5055529;28;20016;-71
2023/01/30 00:15:25;;;;;;;;;;;7.00;99.90;;;;;;5072995;28;19920;-72
2023/01/30 00:17:50;;;;;;;;;;;6.80;99.90;;;;;;5073591;28;20371;-73
2023/01/30 00:20:16;;;;;;;;;;;7.20;99.90;;;;;;5053547;28;19921;-73
2023/01/30 00:22:41;;;;;;;;;;;6.70;99.90;;;;;;5072861;28;19978;-73
2023/01/30 00:25:07;;;;;;;;;;;6.70;99.90;;;;;;5054955;28;20011;-73
2023/01/30 00:27:32;;;;;;;;;;;6.70;99.90;;;;;;5073251;28;19927;-73
2023/01/30 00:29:58;;;;;;;;;;;7.20;99.90;;;;;;5051403;28;19934;-73
2023/01/30 00:32:25;;;;;;;;;;;6.60;99.90;;;;;;5055133;28;20368;-73
2023/01/30 00:34:50;;;;;;;;;;;7.10;99.90;;;;;;5072636;28;20429;-73
2023/01/30 00:37:16;;;;;;;;;;;7.70;99.90;;;;;;5053264;28;19948;-73
2023/01/30 00:39:45;;;;;;;;;;;6.90;99.90;;;;;;5073136;28;19924;-73
2023/01/30 00:47:43;;;;;;;;;;;6.70;99.90;;;;;;5071441;28;19924;-72
2023/01/30 00:50:09;;;;;;;;;;;8.10;99.90;;;;;;5071897;28;19923;-72
2023/01/30 00:52:34;;;;;;;;;;;6.70;99.90;;;;;;5052223;28;19928;-71
2023/01/30 00:55:00;;;;;;;;;;;6.70;99.90;;;;;;5054717;28;19923;-72
2023/01/30 00:57:25;;;;;;;;;;;6.80;99.90;;;;;;5071649;28;19921;-72
2023/01/30 00:59:51;;;;;;;;;;;8.00;99.90;;;;;;5073080;28;20073;-72
2023/01/30 01:02:16;;;;;;;;;;;6.70;99.90;;;;;;5055297;28;19943;-72
2023/01/30 01:04:42;;;;;;;;;;;6.80;99.90;;;;;;5071093;28;19925;-72
2023/01/30 01:07:11;;;;;;;;;;;6.80;99.90;;;;;;5049518;28;19943;-72
2023/01/30 01:09:37;;;;;;;;;;;6.70;99.90;;;;;;5072510;28;20013;-72
2023/01/30 01:12:02;;;;;;;;;;;8.40;99.90;;;;;;5051420;28;19983;-72
2023/01/30 01:14:28;;;;;;;;;;;6.70;99.90;;;;;;5054875;28;20387;-72
2023/01/30 01:16:53;;;;;;;;;;;7.80;99.90;;;;;;5050871;28;20291;-72
2023/01/30 01:19:19;;;;;;;;;;;6.60;99.90;;;;;;5053241;28;19920;-72
2023/01/30 01:21:44;;;;;;;;;;;7.10;99.90;;;;;;5053705;28;19935;-72
2023/01/30 01:24:11;;;;;;;;;;;6.70;99.90;;;;;;5052842;28;19927;-71
2023/01/30 01:26:36;;;;;;;;;;;6.60;99.90;;;;;;5054029;28;19956;-72
2023/01/30 01:29:02;;;;;;;;;;;7.50;99.90;;;;;;5071936;28;19971;-73
2023/01/30 01:31:28;;;;;;;;;;;7.70;99.90;;;;;;5071693;28;19934;-72
2023/01/30 01:33:53;;;;;;;;;;;7.30;99.90;;;;;;5071761;28;19998;-72
2023/01/30 01:36:19;;;;;;;;;;;7.30;99.90;;;;;;5072029;28;20007;-72
2023/01/30 01:38:44;;;;;;;;;;;6.70;99.90;;;;;;5071621;28;19967;-72
2023/01/30 01:41:13;;;;;;;;;;;6.80;99.90;;;;;;5053022;28;20379;-72
2023/01/30 01:43:58;;;;;;;;;;;6.80;99.90;;;;;;5054379;28;19927;-73
2023/01/30 01:46:26;;;;;;;;;;;6.80;99.90;;;;;;5067913;28;19927;-72
2023/01/30 01:48:54;;;;;;;;;;;6.90;99.90;;;;;;5053936;28;19931;-72
2023/01/30 01:51:23;;;;;;;;;;;8.80;99.90;;;;;;5071893;28;19924;-72
2023/01/30 01:53:51;;;;;;;;;;;6.80;99.90;;;;;;5071545;28;19967;-72
2023/01/30 01:56:18;;;;;;;;;;;8.00;99.90;;;;;;5068206;28;19920;-73
2023/01/30 01:58:51;;;;;;;;;;;6.90;99.90;;;;;;5072126;28;19927;-72
2023/01/30 02:01:17;;;;;;;;;;;6.80;99.90;;;;;;5067775;28;19974;-72
2023/01/30 02:03:44;;;;;;;;;;;9.00;99.90;;;;;;5071598;28;19956;-72
2023/01/30 02:06:10;;;;;;;;;;;7.30;99.90;;;;;;5052960;28;19920;-73
2023/01/30 02:08:38;;;;;;;;;;;6.70;99.90;;;;;;5071922;28;20027;-72
2023/01/30 02:11:13;;;;;;;;;;;6.90;99.90;;;;;;5071629;28;19921;-72
2023/01/30 02:13:38;;;;;;;;;;;6.90;99.90;;;;;;5071063;28;19920;-72
2023/01/30 02:16:07;;;;;;;;;;;7.80;99.90;;;;;;5053208;28;19928;-71
2023/01/30 02:18:33;;;;;;;;;;;6.80;99.90;;;;;;5071874;28;20019;-72
2023/01/30 02:21:17;;;;;;;;;;;9.40;99.90;;;;;;5070737;28;20388;-72
2023/01/30 02:24:01;;;;;;;;;;;7.00;99.90;;;;;;5065183;28;19921;-72
2023/01/30 02:26:27;;;;;;;;;;;7.00;99.90;;;;;;5064374;28;19923;-72
2023/01/30 02:29:01;;;;;;;;;;;6.80;99.90;;;;;;5049873;28;19920;-72
2023/01/30 02:31:33;;;;;;;;;;;6.90;99.90;;;;;;5052607;28;19916;-72
2023/01/30 02:33:58;;;;;;;;;;;8.60;99.90;;;;;;5075413;28;19920;-71
2023/01/30 02:36:40;;;;;;;;;;;6.90;99.90;;;;;;5056170;28;20015;-72
2023/01/30 02:39:19;;;;;;;;;;;6.80;99.90;;;;;;5075032;28;19973;-72
2023/01/30 02:41:54;;;;;;;;;;;6.80;99.90;;;;;;5071613;28;19974;-72
2023/01/30 02:44:23;;;;;;;;;;;6.80;99.90;;;;;;5075531;28;19974;-72
2023/01/30 02:47:02;;;;;;;;;;;6.80;99.90;;;;;;5055119;28;19921;-72
2023/01/30 02:49:31;;;;;;;;;;;6.80;99.90;;;;;;5056747;28;19921;-72
2023/01/30 02:51:57;;;;;;;;;;;6.70;99.90;;;;;;5056813;28;19927;-72
2023/01/30 02:54:23;;;;;;;;;;;7.70;99.90;;;;;;5074959;28;19920;-72
2023/01/30 02:56:51;;;;;;;;;;;8.30;99.90;;;;;;5071087;28;20192;-72
2023/01/30 02:59:20;;;;;;;;;;;6.80;99.90;;;;;;5068538;28;19920;-72
2023/01/30 03:01:45;;;;;;;;;;;7.70;99.90;;;;;;5074722;28;19920;-72
2023/01/30 03:04:17;;;;;;;;;;;6.60;99.90;;;;;;5073703;28;19965;-71
2023/01/30 03:06:58;;;;;;;;;;;7.20;99.90;;;;;;5053702;28;20013;-72
2023/01/30 03:09:35;;;;;;;;;;;6.40;99.90;;;;;;5055109;28;19921;-72
2023/01/30 03:12:19;;;;;;;;;;;6.50;99.90;;;;;;5053225;28;19966;-71
2023/01/30 03:14:47;;;;;;;;;;;6.40;99.90;;;;;;5049564;28;19917;-72
2023/01/30 03:17:15;;;;;;;;;;;6.40;99.90;;;;;;5053745;28;19943;-72
2023/01/30 03:19:41;;;;;;;;;;;7.10;99.90;;;;;;5051046;28;20007;-72
2023/01/30 03:22:07;;;;;;;;;;;7.20;99.90;;;;;;5053948;28;19943;-71
2023/01/30 03:24:32;;;;;;;;;;;7.60;99.90;;;;;;5054000;28;20368;-72
2023/01/30 03:27:01;;;;;;;;;;;7.00;99.90;;;;;;5054357;28;19928;-72
2023/01/30 03:29:27;;;;;;;;;;;8.50;99.90;;;;;;5054592;28;20008;-72
2023/01/30 03:31:52;;;;;;;;;;;7.60;99.90;;;;;;5053744;28;20003;-72
2023/01/30 03:34:18;;;;;;;;;;;6.50;99.90;;;;;;5052193;28;19921;-71
2023/01/30 03:36:43;;;;;;;;;;;6.70;99.90;;;;;;5053331;28;19920;-71
2023/01/30 03:39:09;;;;;;;;;;;7.30;99.90;;;;;;5053165;28;19927;-72
2023/01/30 03:41:34;;;;;;;;;;;6.60;99.90;;;;;;5054450;28;19921;-72
2023/01/30 03:44:00;;;;;;;;;;;7.60;99.90;;;;;;5052770;28;19921;-72
2023/01/30 03:46:25;;;;;;;;;;;7.10;99.90;;;;;;5052262;28;19927;-71
2023/01/30 03:48:51;;;;;;;;;;;6.80;99.90;;;;;;5054484;28;20015;-71
2023/01/30 03:51:16;;;;;;;;;;;5.30;99.90;;;;;;5052951;28;20371;-72
2023/01/30 03:53:42;;;;;;;;;;;8.60;99.90;;;;;;5053286;28;19948;-72
2023/01/30 03:56:07;;;;;;;;;;;6.00;99.90;;;;;;5053648;28;19921;-72
2023/01/30 03:58:33;;;;;;;;;;;6.40;99.90;;;;;;5052623;28;20403;-72
2023/01/30 04:00:58;;;;;;;;;;;8.00;99.90;;;;;;5052699;28;20334;-72
2023/01/30 04:03:24;;;;;;;;;;;6.80;99.90;;;;;;5054287;28;20356;-72
2023/01/30 04:05:49;;;;;;;;;;;5.80;99.90;;;;;;5051733;28;20328;-72
2023/01/30 04:08:15;;;;;;;;;;;6.00;99.90;;;;;;5070723;28;19924;-72
2023/01/30 04:10:40;;;;;;;;;;;6.20;99.90;;;;;;5073552;28;20065;-72
2023/01/30 04:13:06;;;;;;;;;;;6.00;99.90;;;;;;5072415;28;19920;-72
2023/01/30 04:15:31;;;;;;;;;;;5.90;99.90;;;;;;5073786;28;19978;-72
2023/01/30 04:17:57;;;;;;;;;;;6.80;99.90;;;;;;5051879;28;19935;-72
2023/01/30 04:20:23;;;;;;;;;;;6.90;99.90;;;;;;5054636;28;19920;-72
2023/01/30 04:22:49;;;;;;;;;;;6.90;99.90;;;;;;5055479;28;20007;-72
2023/01/30 04:25:14;;;;;;;;;;;6.50;99.90;;;;;;5055177;28;20486;-72
2023/01/30 04:27:40;;;;;;;;;;;5.90;99.90;;;;;;5072671;28;20378;-72
2023/01/30 04:30:06;;;;;;;;;;;6.80;99.90;;;;;;5055002;28;19924;-72
2023/01/30 04:32:31;;;;;;;;;;;5.80;99.90;;;;;;5055176;28;19922;-72
2023/01/30 04:34:57;;;;;;;;;;;5.80;99.90;;;;;;5051079;28;19972;-72
2023/01/30 04:37:22;;;;;;;;;;;5.80;99.90;;;;;;5073458;28;19924;-72
2023/01/30 04:39:48;;;;;;;;;;;5.80;99.90;;;;;;5069019;28;19932;-72
2023/01/30 04:42:13;;;;;;;;;;;5.80;99.90;;;;;;5053954;28;19979;-72
2023/01/30 04:44:39;;;;;;;;;;;5.90;99.90;;;;;;5055572;28;20317;-72
2023/01/30 04:47:04;;;;;;;;;;;6.30;99.90;;;;;;5072440;28;19920;-72
2023/01/30 04:49:30;;;;;;;;;;;6.50;99.90;;;;;;5072293;28;19927;-72
2023/01/30 04:51:55;;;;;;;;;;;5.90;99.90;;;;;;5072579;28;19916;-72
2023/01/30 04:54:21;;;;;;;;;;;6.60;99.90;;;;;;5055010;28;19974;-72
2023/01/30 04:56:46;;;;;;;;;;;5.80;99.90;;;;;;5071992;28;19986;-72
2023/01/30 04:59:12;;;;;;;;;;;6.00;99.90;;;;;;5072680;28;20276;-71
2023/01/30 05:01:38;;;;;;;;;;;6.30;99.90;;;;;;5073044;28;19964;-71
2023/01/30 05:04:04;;;;;;;;;;;5.70;99.90;;;;;;5071653;28;19920;-71
2023/01/30 05:06:30;;;;;;;;;;;5.70;99.90;;;;;;5054678;28;20364;-72
2023/01/30 05:08:56;;;;;;;;;;;5.70;99.90;;;;;;5052440;28;19920;-72
2023/01/30 05:11:22;;;;;;;;;;;6.50;99.90;;;;;;5071804;28;20380;-72
2023/01/30 05:13:48;;;;;;;;;;;7.10;99.90;;;;;;5072401;28;20008;-71
2023/01/30 05:16:14;;;;;;;;;;;6.20;99.90;;;;;;5071527;28;20007;-72
2023/01/30 05:18:39;;;;;;;;;;;7.20;99.90;;;;;;5054441;28;19965;-72
2023/01/30 05:21:06;;;;;;;;;;;7.10;99.90;;;;;;5053874;28;20023;-72
2023/01/30 05:23:32;;;;;;;;;;;5.70;99.90;;;;;;5063502;28;19928;-72
2023/01/30 05:25:58;;;;;;;;;;;5.70;99.90;;;;;;5060526;28;19920;-72
2023/01/30 05:28:24;;;;;;;;;;;6.30;99.90;;;;;;5047597;28;20364;-71
2023/01/30 05:30:50;;;;;;;;;;;5.70;99.90;;;;;;5062669;28;19916;-71
2023/01/30 05:33:15;;;;;;;;;;;6.90;99.90;;;;;;5071904;28;20007;-72
2023/01/30 05:35:47;;;;;;;;;;;5.60;99.90;;;;;;5053710;28;19926;-71
2023/01/30 05:38:13;;;;;;;;;;;5.60;99.90;;;;;;5067654;28;19916;-72
2023/01/30 05:40:38;;;;;;;;;;;5.70;99.90;;;;;;5071733;28;20061;-72
2023/01/30 05:43:04;;;;;;;;;;;7.20;99.90;;;;;;5052656;28;19916;-70
2023/01/30 05:45:29;;;;;;;;;;;7.40;99.90;;;;;;5070942;28;19920;-70
2023/01/30 05:47:55;;;;;;;;;;;8.30;99.90;;;;;;5054042;28;20011;-71
2023/01/30 05:50:20;;;;;;;;;;;7.80;99.90;;;;;;5052112;28;20367;-83
2023/01/30 05:52:46;;;;;;;;;;;6.30;99.90;;;;;;5051548;28;19921;-72
2023/01/30 05:55:12;;;;;;;;;;;6.60;99.90;;;;;;5063999;28;19931;-85
2023/01/30 05:57:37;;;;;;;;;;;4.00;99.90;;;;;;5057061;28;20334;-78
2023/01/30 06:00:04;;;;;;;;;;;8.10;99.90;;;;;;5070355;28;19921;-83
2023/01/30 06:02:30;;;;;;;;;;;6.00;99.90;;;;;;5051972;28;19924;-78
2023/01/30 06:04:55;;;;;;;;;;;6.00;99.90;;;;;;5067941;28;19943;-81
2023/01/30 06:07:21;;;;;;;;;;;7.30;99.90;;;;;;5052378;28;19925;-79
2023/01/30 06:09:47;;;;;;;;;;;6.10;99.90;;;;;;5057116;28;19920;-84
2023/01/30 06:12:12;;;;;;;;;;;7.00;99.90;;;;;;5058676;28;19964;-82
2023/01/30 06:14:38;;;;;;;;;;;6.10;99.90;;;;;;5053507;28;19956;-77
2023/01/30 06:17:03;;;;;;;;;;;5.90;99.90;;;;;;5053279;28;19979;-71
2023/01/30 06:19:29;;;;;;;;;;;6.00;99.90;;;;;;5043142;28;19925;-71
2023/01/30 06:21:54;;;;;;;;;;;5.80;99.90;;;;;;5052533;28;19920;-71
2023/01/30 06:24:20;;;;;;;;;;;7.20;99.90;;;;;;5057163;28;19977;-72
2023/01/30 06:26:45;;;;;;;;;;;6.90;99.90;;;;;;5055368;28;19925;-71
2023/01/30 06:29:14;;;;;;;;;;;6.80;99.90;;;;;;5056533;28;19920;-73
2023/01/30 06:31:39;;;;;;;;;;;6.00;99.90;;;;;;5054713;28;20391;-73
2023/01/30 06:34:05;;;;;;;;;;;7.00;99.90;;;;;;5054102;28;19982;-72
2023/01/30 06:36:31;;;;;;;;;;;8.00;99.90;;;;;;5055021;28;20284;-72
2023/01/30 06:38:56;;;;;;;;;;;6.60;99.90;;;;;;5056366;28;20388;-73
2023/01/30 06:41:22;;;;;;;;;;;5.90;99.90;;;;;;5054137;28;19928;-71
2023/01/30 06:43:47;;;;;;;;;;;5.80;99.90;;;;;;5055979;28;20283;-72
2023/01/30 06:46:13;;;;;;;;;;;6.50;99.90;;;;;;5056816;28;19975;-72
2023/01/30 06:48:38;;;;;;;;;;;8.40;99.90;;;;;;5057685;28;20303;-73
2023/01/30 06:51:04;;;;;;;;;;;6.30;99.90;;;;;;5056985;28;19924;-73
2023/01/30 06:53:30;;;;;;;;;;;5.90;99.90;;;;;;5053840;28;19927;-73
2023/01/30 06:56:00;;;;;;;;;;;5.90;99.90;;;;;;5055393;28;19920;-73
2023/01/30 06:58:26;;;;;;;;;;;6.60;99.90;;;;;;5054188;28;19928;-73
2023/01/30 07:00:51;;;;;;;;;;;6.10;99.90;;;;;;5056594;28;19921;-73
2023/01/30 07:03:17;;;;;;;;;;;6.10;99.90;;;;;;5057500;28;20343;-73
2023/01/30 07:05:43;;;;;;;;;;;6.60;99.90;;;;;;5056529;28;19924;-73
2023/01/30 07:08:09;;;;;;;;;;;6.00;99.90;;;;;;5074201;28;19921;-73
2023/01/30 07:10:34;;;;;;;;;;;6.20;99.90;;;;;;5076808;28;19990;-73
2023/01/30 07:13:00;;;;;;;;;;;8.00;99.90;;;;;;5077930;28;20283;-73
2023/01/30 07:15:26;;;;;;;;;;;6.90;99.90;;;;;;5077897;28;19916;-73
2023/01/30 07:17:52;;;;;;;;;;;6.20;99.90;;;;;;5075947;28;19998;-73
2023/01/30 07:20:17;;;;;;;;;;;6.30;99.90;;;;;;5074218;28;20422;-71
2023/01/30 07:22:48;;;;;;;;;;;6.10;99.90;;;;;;5055931;28;20375;-71
2023/01/30 07:25:13;;;;;;;;;;;8.00;99.90;;;;;;5056424;28;19920;-72
2023/01/30 07:27:40;;;;;;;;;;;6.10;99.90;;;;;;5056266;28;19982;-71
2023/01/30 07:30:05;;;;;;;;;;;6.10;99.90;;;;;;5073311;28;20019;-71
2023/01/30 07:32:31;;;;;;;;;;;6.20;99.90;;;;;;5074473;28;20011;-72
2023/01/30 07:34:57;;;;;;;;;;;6.30;99.90;;;;;;5053823;28;19970;-71
2023/01/30 07:37:22;;;;;;;;;;;6.20;99.90;;;;;;5073334;28;19932;-72
2023/01/30 07:39:48;;;;;;;;;;;6.20;99.90;;;;;;5070096;28;20438;-71
2023/01/30 07:42:13;;;;;;;;;;;6.20;99.90;;;;;;5055431;28;19926;-71
2023/01/30 07:44:39;;;;;;;;;;;6.00;99.90;;;;;;5073864;28;19921;-71
2023/01/30 07:47:04;;;;;;;;;;;7.90;99.90;;;;;;5073885;28;20446;-71
2023/01/30 07:49:30;;;;;;;;;;;6.10;99.90;;;;;;5056114;28;19920;-71
2023/01/30 07:51:55;;;;;;;;;;;6.00;99.90;;;;;;5052747;28;19920;-72
2023/01/30 07:54:21;;;;;;;;;;;6.90;99.90;;;;;;5056683;28;20379;-71
2023/01/30 07:56:47;;;;;;;;;;;6.80;99.90;;;;;;5074134;28;19968;-71
2023/01/30 07:59:12;;;;;;;;;;;6.20;99.90;;;;;;5073005;28;19924;-71
2023/01/30 08:01:38;;;;;;;;;;;7.40;99.90;;;;;;5074145;28;19920;-71
2023/01/30 08:04:03;;;;;;;;;;;6.80;99.90;;;;;;5054960;28;19921;-71
2023/01/30 08:06:29;;;;;;;;;;;6.20;99.90;;;;;;5072222;28;19928;-71
2023/01/30 08:08:55;;;;;;;;;;;6.30;99.90;;;;;;5055597;28;19920;-71
2023/01/30 08:11:20;;;;;;;;;;;6.30;99.90;;;;;;5073707;28;20407;-72
2023/01/30 08:13:46;;;;;;;;;;;6.30;99.90;;;;;;5054952;28;19921;-71
2023/01/30 08:16:11;;;;;;;;;;;6.90;99.90;;;;;;5051123;28;19931;-71
2023/01/30 08:18:37;;;;;;;;;;;8.00;99.90;;;;;;5073613;28;20292;-71
2023/01/30 08:21:04;;;;;;;;;;;6.40;99.90;;;;;;5053700;28;19933;-71
2023/01/30 08:23:30;;;;;;;;;;;6.40;99.90;;;;;;5073677;28;19920;-72
2023/01/30 08:25:56;;;;;;;;;;;7.10;99.90;;;;;;5053210;28;19998;-71
2023/01/30 08:28:21;;;;;;;;;;;6.40;99.90;;;;;;5054431;28;19928;-72
2023/01/30 08:30:48;;;;;;;;;;;6.20;99.90;;;;;;5054711;28;19974;-72
2023/01/30 08:33:13;;;;;;;;;;;6.40;99.90;;;;;;5054157;28;19970;-72
2023/01/30 08:35:39;;;;;;;;;;;8.00;99.90;;;;;;5073442;28;20322;-72
2023/01/30 08:38:07;;;;;;;;;;;6.80;99.90;;;;;;5054453;28;19927;-72
2023/01/30 08:40:34;;;;;;;;;;;6.60;99.90;;;;;;5072413;28;19928;-72
2023/01/30 08:42:59;;;;;;;;;;;8.40;99.90;;;;;;5072931;28;19920;-75
2023/01/30 08:45:24;;;;;;;;;;;9.10;99.90;;;;;;5063551;28;19921;-74
2023/01/30 08:47:50;;;;;;;;;;;7.90;99.90;;;;;;5053811;28;19920;-75
2023/01/30 08:50:16;;;;;;;;;;;7.80;99.90;;;;;;5051958;28;19921;-76
2023/01/30 08:52:41;;;;;;;;;;;6.70;99.90;;;;;;5055540;28;19920;-76
2023/01/30 08:55:08;;;;;;;;;;;7.50;99.90;;;;;;5071894;28;19935;-76
2023/01/30 08:57:33;;;;;;;;;;;6.80;99.90;;;;;;5050965;28;20439;-74
2023/01/30 08:59:59;;;;;;;;;;;7.80;99.90;;;;;;5069849;28;20062;-76
2023/01/30 09:02:25;;;;;;;;;;;8.20;99.90;;;;;;5072251;28;19956;-74
2023/01/30 09:04:50;;;;;;;;;;;8.00;99.90;;;;;;5055055;28;20356;-75
2023/01/30 09:07:16;;;;;;;;;;;8.70;99.90;;;;;;5071704;28;19927;-75
2023/01/30 09:09:41;;;;;;;;;;;7.30;99.90;;;;;;5051093;28;19935;-73
2023/01/30 09:12:07;;;;;;;;;;;7.70;99.90;;;;;;5072581;28;20282;-73
2023/01/30 09:14:32;;;;;;;;;;;7.30;99.90;;;;;;5072789;28;20426;-75
2023/01/30 09:16:58;;;;;;;;;;;7.60;99.90;;;;;;5071227;28;20371;-74
2023/01/30 09:19:25;;;;;;;;;;;8.00;99.90;;;;;;5072592;28;20330;-75
2023/01/30 09:21:51;;;;;;;;;;;7.10;99.90;;;;;;5054353;28;19959;-76
2023/01/30 09:24:16;;;;;;;;;;;9.20;99.90;;;;;;5071413;28;19986;-72
2023/01/30 09:26:43;;;;;;;;;;;7.10;99.90;;;;;;5054783;28;20410;-74
2023/01/30 09:29:12;;;;;;;;;;;8.10;99.90;;;;;;5071919;28;19926;-75
2023/01/30 09:31:38;;;;;;;;;;;8.20;99.90;;;;;;5054142;28;20314;-71
2023/01/30 09:34:03;;;;;;;;;;;7.20;99.90;;;;;;5071686;28;19921;-70
2023/01/30 09:36:29;;;;;;;;;;;7.40;99.90;;;;;;5054028;28;19974;-71
2023/01/30 09:38:54;;;;;;;;;;;8.60;99.90;;;;;;5053546;28;19927;-71
2023/01/30 09:41:34;;;;;;;;;;;9.30;99.90;;;;;;5052817;28;19921;-75
2023/01/30 09:44:11;;;;;;;;;;;9.80;99.90;;;;;;5049500;28;19927;-75
2023/01/30 09:46:37;;;;;;;;;;;10.10;99.90;;;;;;5069707;28;20261;-73
2023/01/30 09:49:21;;;;;;;;;;;10.40;99.90;;;;;;5070507;28;19947;-73
2023/01/30 09:52:13;;;;;;;;;;;11.10;99.90;;;;;;5071046;28;19921;-73
2023/01/30 09:54:40;;;;;;;;;;;11.70;99.90;;;;;;5069856;28;20271;-73
2023/01/30 09:57:22;;;;;;;;;;;12.00;99.90;;;;;;5053007;28;19924;-73
2023/01/30 09:59:48;;;;;;;;;;;12.50;99.90;;;;;;5052415;28;20053;-73
2023/01/30 10:02:27;;;;;;;;;;;12.60;99.90;;;;;;5052693;28;20011;-73
2023/01/30 10:04:55;;;;;;;;;;;12.10;99.90;;;;;;5049551;28;19924;-73
2023/01/30 10:07:29;;;;;;;;;;;11.80;99.90;;;;;;5071249;28;20288;-73
2023/01/30 10:10:13;;;;;;;;;;;11.60;99.90;;;;;;5046646;28;20011;-73
2023/01/30 10:12:54;;;;;;;;;;;11.70;99.90;;;;;;5051057;28;19973;-73
2023/01/30 10:15:33;;;;;;;;;;;12.10;99.90;;;;;;5053821;28;19920;-73
2023/01/30 10:18:02;;;;;;;;;;;12.10;99.90;;;;;;5068754;28;19916;-73
2023/01/30 10:20:31;;;;;;;;;;;11.50;99.90;;;;;;5071337;28;20295;-73
2023/01/30 10:23:06;;;;;;;;;;;10.80;99.90;;;;;;5050179;28;20357;-73
2023/01/30 10:25:35;;;;;;;;;;;10.40;99.90;;;;;;5071715;28;19921;-73
2023/01/30 10:28:19;;;;;;;;;;;10.10;99.90;;;;;;5050997;28;20334;-73
2023/01/30 10:30:46;;;;;;;;;;;9.80;99.90;;;;;;5053860;28;19927;-73
2023/01/30 10:33:19;;;;;;;;;;;9.70;99.90;;;;;;5052222;28;20455;-73
2023/01/30 10:35:48;;;;;;;;;;;9.40;99.90;;;;;;5053564;28;19921;-71
2023/01/30 10:38:14;;;;;;;;;;;8.90;99.90;;;;;;5052857;28;19920;-72
2023/01/30 10:40:57;;;;;;;;;;;9.80;99.90;;;;;;5051848;28;19973;-72
2023/01/30 10:43:41;;;;;;;;;;;10.70;99.90;;;;;;5068625;28;19935;-73
2023/01/30 10:46:25;;;;;;;;;;;12.00;99.90;;;;;;5071523;28;19974;-72
2023/01/30 10:49:10;;;;;;;;;;;13.20;99.90;;;;;;5046426;28;20300;-72
2023/01/30 10:51:54;;;;;;;;;;;14.10;99.90;;;;;;5071836;28;19924;-72
2023/01/30 10:54:19;;;;;;;;;;;14.60;99.90;;;;;;5070795;28;19920;-73
2023/01/30 10:56:56;;;;;;;;;;;14.60;99.90;;;;;;5075031;28;19920;-72
2023/01/30 10:59:23;;;;;;;;;;;14.50;99.90;;;;;;5053743;28;19927;-72
2023/01/30 11:01:58;;;;;;;;;;;14.30;99.90;;;;;;5074352;28;19920;-72
2023/01/30 11:04:23;;;;;;;;;;;14.40;99.90;;;;;;5054494;28;19960;-72
2023/01/30 11:06:50;;;;;;;;;;;14.70;99.10;;;;;;5050094;28;19963;-72
2023/01/30 11:09:15;;;;;;;;;;;15.30;98.80;;;;;;5068558;28;19924;-74
2023/01/30 11:11:48;;;;;;;;;;;15.60;98.30;;;;;;5056921;28;19935;-74
2023/01/30 11:14:16;;;;;;;;;;;15.10;97.00;;;;;;5053224;28;19916;-78
2023/01/30 11:16:52;;;;;;;;;;;13.50;99.90;;;;;;5051868;28;20071;-73
2023/01/30 11:19:20;;;;;;;;;;;12.10;99.90;;;;;;5053256;28;20015;-77
2023/01/30 11:21:53;;;;;;;;;;;11.40;99.90;;;;;;5074176;28;20012;-76
2023/01/30 11:24:21;;;;;;;;;;;10.10;99.90;;;;;;5074157;28;19920;-77
2023/01/30 11:26:47;;;;;;;;;;;9.30;99.90;;;;;;5056103;28;20417;-74
2023/01/30 11:29:27;;;;;;;;;;;8.80;99.90;;;;;;5073934;28;19924;-75
2023/01/30 11:31:55;;;;;;;;;;;8.40;99.90;;;;;;5053790;28;19978;-74
2023/01/30 11:34:22;;;;;;;;;;;8.60;99.90;;;;;;5054388;28;19920;-75
2023/01/30 11:36:48;;;;;;;;;;;10.00;99.90;;;;;;5055989;28;20015;-74
2023/01/30 11:39:21;;;;;;;;;;;11.60;99.90;;;;;;5055127;28;20000;-80
2023/01/30 11:41:57;;;;;;;;;;;12.70;99.90;;;;;;5054275;28;20020;-76
2023/01/30 11:44:36;;;;;;;;;;;13.40;99.90;;;;;;5073692;28;20018;-74
2023/01/30 11:47:12;;;;;;;;;;;14.30;99.90;;;;;;5073835;28;19928;-77
2023/01/30 11:49:42;;;;;;;;;;;14.70;99.90;;;;;;5070030;28;19967;-76
2023/01/30 11:52:09;;;;;;;;;;;15.40;99.90;;;;;;5048192;28;20453;-75
2023/01/30 11:54:40;;;;;;;;;;;15.40;99.90;;;;;;5073717;28;19952;-75
2023/01/30 11:57:10;;;;;;;;;;;15.40;99.70;;;;;;5067678;28;19927;-73
2023/01/30 11:59:43;;;;;;;;;;;15.70;99.60;;;;;;5068065;28;19974;-74
2023/01/30 12:02:18;;;;;;;;;;;16.00;98.40;;;;;;5068008;28;19925;-74
2023/01/30 12:04:44;;;;;;;;;;;16.40;97.70;;;;;;5070154;28;20025;-74
2023/01/30 12:07:16;;;;;;;;;;;16.30;97.70;;;;;;5071416;28;19932;-74
2023/01/30 12:09:41;;;;;;;;;;;16.10;97.20;;;;;;5053671;28;19946;-74
2023/01/30 12:12:25;;;;;;;;;;;16.90;97.30;;;;;;5071158;28;19924;-74
2023/01/30 12:14:51;;;;;;;;;;;16.30;96.70;;;;;;5073499;28;20253;-74
2023/01/30 12:17:20;;;;;;;;;;;16.60;96.50;;;;;;5073705;28;20013;-74
2023/01/30 12:19:51;;;;;;;;;;;16.30;96.40;;;;;;5073000;28;19920;-74
2023/01/30 12:22:35;;;;;;;;;;;16.60;97.00;;;;;;5054299;28;20015;-74
2023/01/30 12:25:08;;;;;;;;;;;16.90;96.20;;;;;;5069592;28;20326;-74
2023/01/30 12:27:33;;;;;;;;;;;16.90;95.30;;;;;;5048848;28;19970;-74
2023/01/30 12:30:02;;;;;;;;;;;16.90;95.40;;;;;;5055544;28;19921;-74
2023/01/30 12:32:33;;;;;;;;;;;16.50;95.30;;;;;;5054092;28;20031;-74
2023/01/30 12:34:59;;;;;;;;;;;16.10;96.00;;;;;;5068808;28;19921;-74
2023/01/30 12:37:43;;;;;;;;;;;16.20;96.40;;;;;;5054991;28;19922;-74
2023/01/30 12:40:16;;;;;;;;;;;16.40;96.20;;;;;;5051959;28;19970;-74
2023/01/30 12:42:41;;;;;;;;;;;16.50;96.30;;;;;;5072930;28;19965;-74
2023/01/30 12:45:10;;;;;;;;;;;16.90;95.10;;;;;;5072457;28;19920;-74
2023/01/30 12:47:45;;;;;;;;;;;16.40;95.40;;;;;;5119503;22;19929;-83
2023/01/30 12:50:30;;;;;;;;;;;16.20;95.70;;;;;;5030750;28;20279;-72
2023/01/30 12:53:21;;;;;;;;;;;15.80;96.10;;;;;;5028742;28;19921;-72
2023/01/30 12:55:58;;;;;;;;;;;15.40;95.90;;;;;;5031079;28;20004;-72
2023/01/30 12:58:44;;;;;;;;;;;15.30;97.10;;;;;;5029829;28;19944;-73
2023/01/30 13:01:26;;;;;;;;;;;15.50;96.90;;;;;;5027694;28;20324;-72
2023/01/30 13:04:11;;;;;;;;;;;15.20;97.20;;;;;;5032473;28;19943;-73
2023/01/30 13:06:39;;;;;;;;;;;15.30;97.40;;;;;;5029341;28;19948;-72
2023/01/30 13:09:22;;;;;;;;;;;15.30;97.90;;;;;;5031825;28;20293;-72
2023/01/30 13:12:02;;;;;;;;;;;15.40;98.00;;;;;;5032279;28;19929;-73
2023/01/30 13:14:40;;;;;;;;;;;15.00;98.00;;;;;;5024051;28;20277;-73
2023/01/30 13:17:08;;;;;;;;;;;14.60;98.50;;;;;;5031767;28;19921;-74
2023/01/30 13:19:34;;;;;;;;;;;14.20;98.30;;;;;;5028952;28;20299;-73
2023/01/30 13:22:07;;;;;;;;;;;13.40;99.60;;;;;;5029972;28;19948;-73
2023/01/30 13:24:42;;;;;;;;;;;12.60;99.90;;;;;;5029388;28;19928;-73
2023/01/30 13:27:11;;;;;;;;;;;12.50;99.90;;;;;;5031397;28;19921;-72
2023/01/30 13:29:40;;;;;;;;;;;12.00;99.90;;;;;;5029505;28;19922;-73
2023/01/30 13:32:11;;;;;;;;;;;11.80;99.90;;;;;;5029271;28;19921;-74
2023/01/30 13:34:38;;;;;;;;;;;11.90;99.90;;;;;;5031509;28;19944;-75
2023/01/30 13:37:30;;;;;;;;;;;12.30;99.90;;;;;;5028536;28;19925;-76
2023/01/30 13:39:57;;;;;;;;;;;11.50;99.90;;;;;;5024041;28;19921;-76
2023/01/30 13:42:23;;;;;;;;;;;11.30;99.90;;;;;;5032305;28;19921;-74
2023/01/30 13:44:48;;;;;;;;;;;11.10;99.90;;;;;;5030332;28;19966;-75
2023/01/30 13:47:26;;;;;;;;;;;11.00;99.90;;;;;;5030812;28;19968;-77
2023/01/30 13:50:07;;;;;;;;;;;10.60;99.90;;;;;;5029867;28;19928;-75
2023/01/30 13:52:36;;;;;;;;;;;10.80;99.90;;;;;;5033152;28;19921;-76
2023/01/30 13:55:24;;;;;;;;;;;11.00;99.90;;;;;;5047678;28;19940;-74
2023/01/30 13:57:56;;;;;;;;;;;10.90;99.90;;;;;;5016862;28;19987;-76
2023/01/30 14:00:34;;;;;;;;;;;10.80;99.90;;;;;;5051477;28;19925;-75
2023/01/30 14:03:06;;;;;;;;;;;10.70;99.90;;;;;;5050937;28;19978;-74
2023/01/30 14:05:50;;;;;;;;;;;10.50;99.90;;;;;;5031212;28;19921;-73
2023/01/30 14:08:20;;;;;;;;;;;10.10;99.90;;;;;;5028361;28;19921;-72
2023/01/30 14:10:46;;;;;;;;;;;9.90;99.90;;;;;;5045822;28;19975;-73
2023/01/30 14:13:13;;;;;;;;;;;9.80;99.90;;;;;;5050388;28;19925;-73
2023/01/30 14:15:41;;;;;;;;;;;9.60;99.90;;;;;;5033849;28;20007;-74
2023/01/30 14:18:17;;;;;;;;;;;9.60;99.90;;;;;;5050097;28;19972;-82
2023/01/30 14:20:47;;;;;;;;;;;9.60;99.90;;;;;;5048100;28;20485;-74
2023/01/30 14:23:21;;;;;;;;;;;9.60;99.90;;;;;;5026529;28;19932;-73
2023/01/30 14:25:48;;;;;;;;;;;9.40;99.90;;;;;;5043817;28;19920;-75
2023/01/30 14:28:14;;;;;;;;;;;10.20;99.90;;;;;;5034586;28;19925;-74
2023/01/30 14:30:50;;;;;;;;;;;9.30;99.90;;;;;;5038434;28;20319;-79
2023/01/30 14:33:22;;;;;;;;;;;9.20;99.90;;;;;;5034022;28;19925;-74
2023/01/30 14:35:59;;;;;;;;;;;9.20;99.90;;;;;;5055691;28;19920;-75
2023/01/30 14:38:29;;;;;;;;;;;9.10;99.90;;;;;;5030935;28;19921;-82
2023/01/30 14:40:57;;;;;;;;;;;9.00;99.90;;;;;;5054353;28;19921;-72